createdAt,value
2023-05-17T00:05:32.337Z,58.3
2023-05-17T00:20:42.484Z,58.3
2023-05-17T00:35:52.552Z,58.5
2023-05-17T00:51:02.809Z,58.7
2023-05-17T01:06:12.864Z,59.1
2023-05-17T01:21:23.077Z,59.6
2023-05-17T01:36:32.705Z,59.4
2023-05-17T01:51:43.013Z,59.6
2023-05-17T02:06:52.825Z,59.6
2023-05-17T02:22:03.323Z,59.7
2023-05-17T02:37:13.855Z,59.8
2023-05-17T02:52:24.040Z,59.9
2023-05-17T03:07:34.652Z,60.1
2023-05-17T03:22:44.692Z,60.3
2023-05-17T03:37:54.813Z,60.5
2023-05-17T03:53:04.793Z,60.7
2023-05-17T04:08:16.242Z,60.9
2023-05-17T04:23:26.062Z,60.9
2023-05-17T04:38:37.141Z,60.8
2023-05-17T04:57:33.682Z,63.7
2023-05-17T05:12:46.393Z,64
2023-05-17T05:27:56.212Z,63.3
2023-05-17T05:43:06.406Z,62.8
2023-05-17T05:58:16.329Z,62.4
2023-05-17T06:13:26.761Z,62.1
2023-05-17T06:28:38.954Z,61.7
2023-05-17T06:43:50.013Z,61.4
2023-05-17T06:59:00.597Z,61
2023-05-17T07:14:10.772Z,60.6
2023-05-17T07:29:21.592Z,60.7
2023-05-17T07:44:31.682Z,60.1
2023-05-17T07:59:42.042Z,59.7
2023-05-17T08:14:52.147Z,59.4
2023-05-17T08:30:04.138Z,59.1
2023-05-17T08:45:17.230Z,59.1
2023-05-17T09:00:27.673Z,58.7
2023-05-17T09:15:38.645Z,58.3
2023-05-17T09:30:50.435Z,57.8
2023-05-17T09:46:00.953Z,57.3
2023-05-17T10:01:14.065Z,57.1
2023-05-17T10:16:24.067Z,57.3
2023-05-17T10:31:34.570Z,56.6
2023-05-17T10:46:44.406Z,56.4
2023-05-17T11:01:54.395Z,55.8
2023-05-17T11:17:04.662Z,55.7
2023-05-17T11:32:14.486Z,55.4
2023-05-17T11:47:24.578Z,55.5
2023-05-17T12:02:34.985Z,54.7
2023-05-17T12:17:47.266Z,53.8
2023-05-17T12:33:00.009Z,53.9
2023-05-17T12:48:09.978Z,53.7
2023-05-17T13:03:21.654Z,52.4
2023-05-17T13:18:32.653Z,53.4
2023-05-17T13:33:43.734Z,52.8
2023-05-17T13:48:54.478Z,53.5
2023-05-17T14:04:06.704Z,52.4
2023-05-17T14:19:17.703Z,51
2023-05-17T14:34:27.664Z,52.2
2023-05-17T14:49:39.189Z,52.6
2023-05-17T15:04:49.886Z,51.5
2023-05-17T15:20:00.220Z,52.5
2023-05-17T15:35:11.219Z,50.7
2023-05-17T15:50:21.689Z,50.4
2023-05-17T16:05:32.001Z,50.8
2023-05-17T16:20:41.638Z,51.2
2023-05-17T16:35:52.586Z,50.4
2023-05-17T16:51:02.250Z,51.9
2023-05-17T17:06:11.258Z,52.9
2023-05-17T17:21:20.145Z,53.4
2023-05-17T17:36:29.268Z,53.6
2023-05-17T17:51:38.978Z,53.7
2023-05-17T18:06:48.507Z,53.7
2023-05-17T18:21:58.257Z,53.9
2023-05-17T18:37:07.745Z,54.1
2023-05-17T18:52:17.417Z,54.2
2023-05-17T19:07:26.904Z,54.4
2023-05-17T19:22:38.942Z,54.5
2023-05-17T19:37:48.437Z,54.7
2023-05-17T19:52:58.256Z,54.8
2023-05-17T20:08:08.075Z,54.7
2023-05-17T20:23:17.831Z,54.9
2023-05-17T20:38:28.695Z,55
2023-05-17T20:53:39.018Z,54.7
2023-05-17T21:08:48.818Z,55.3
2023-05-17T21:23:58.239Z,55.4
2023-05-17T21:39:07.725Z,55.5
2023-05-17T21:54:16.950Z,55.7
2023-05-17T22:09:26.502Z,55.8
2023-05-17T22:24:37.262Z,56
2023-05-17T22:39:47.081Z,56
2023-05-17T22:54:56.916Z,56.2
2023-05-17T23:10:06.920Z,56.4
2023-05-17T23:25:16.701Z,56.4
2023-05-17T23:40:26.012Z,56.5
2023-05-17T23:55:35.633Z,56.7
